メインページ
METAR-TAF:

METAR-TAF

空港 :

ラパス, ボリビア

エル・アルト国際空港

緯度: 16-31S, 経度: 068-11W, 海抜: 4058m

現時点の気象観測

当レポートは1時間16分前の05:00(UTC)に作成
の風 8kt
気温
気圧 1037 hPa
視程: 4000m
高度200ftの雲はほとんどない
高度1200ftの雲は散在している
高度20000ftの千切れ雲あり
近辺で霧

METAR: SLLP 280500Z 10008KT 4000E VCFG FEW002 SCT012 BKN200 07/05Q1037

時間: 02:16 (06:16 UTC)

予報

当レポートは2時間16分前の04:00(UTC)に作成
予報は28日の 06時(UTC)から 29日の 06時(UTC)まで有効
東/南東の風 5kt
視程: 3000m
高度200ftの雲はほとんどない
高度1300ftの雲は散在している
高度1700ftの雲はほとんどない, 積乱雲.
高度7000ftの千切れ雲あり
近辺で霧
確率 30% :
28日の 07時(UTC)から 28日の 10時(UTC)まで一時的に
視程: 6000m
28日の 12時(UTC)から 28日の 14時(UTC)まで徐々に
視程10km以上
高度800ftの雲はほとんどない
高度1500ftの雲は散在している
28日の 18時(UTC)から 28日の 22時(UTC)まで一時的に
北/北東の風 13kt
視程: 8000m
高度1700ftの雲は散在している
高度2000ftの雲はほとんどない, 積乱雲.
高度7000ftの雲は散在している

TAF: SLLP 280400Z 2806/2906 11005KT 3000E VCFG FEW002 SCT013 FEW017CB BKN070 TX15/2820Z TN03/2810Z PROB30 TEMPO 2807/2810 6000 RA BECMG 2812/2814 9999 NSW FEW008 SCT015 TEMPO 2818/2822 03013KT 8000 VCTSSH SCT017 FEW020CB SCT070

4,000以上の空港の気象観測と天気予報(METAR報とTAF報)

利用可能な観測所は地図上に黄色い丸と赤い丸で示す。

丸の上にカーソルを重ねると観測所名を参照できる。

次にクリックすると気象観測と天気予報を参照できる。

マップの切り替え:黒色「×」印の緑ボタンをクリックして拡大、「-」印の緑ボタンをクリックして縮小、緑色の三角印をクリックして隣りの地図に切り替え


METAR-TAF: